Time;durP1;ratioP1;P1;durP2;ratioP2;P2;SDS_P1;SDS_P2;PMS_P1;PMS_P2;Temp;Humidity;BMP_temperature;BMP_pressure;BME280_temperature;BME280_humidity;BME280_pressure;Samples;Min_cycle;Max_cycle;Signal;HPM_P1;HPM_P2
2020/12/06 00:02:04;;;;;;;40.22;20.23;;;;;;;1.40;100.00;99644.91;4961667;28;20027;-77
2020/12/06 00:04:29;;;;;;;44.13;22.13;;;;;;;1.37;100.00;99637.94;4945872;28;20034;-77
2020/12/06 00:06:56;;;;;;;44.17;21.67;;;;;;;1.38;100.00;99631.72;4946877;28;20502;-76
2020/12/06 00:09:22;;;;;;;45.55;22.55;;;;;;;1.40;100.00;99631.69;4945716;28;20045;-77
2020/12/06 00:11:58;;;;;;;43.58;21.75;;;;;;;1.49;100.00;99626.81;4946095;28;20032;-77
2020/12/06 00:14:24;;;;;;;47.67;21.48;;;;;;;1.48;100.00;99613.69;4951873;28;20039;-77
2020/12/06 00:16:49;;;;;;;44.80;23.42;;;;;;;1.44;100.00;99607.66;4947273;28;20049;-78
2020/12/06 00:19:15;;;;;;;49.13;23.88;;;;;;;1.40;100.00;99611.38;4963060;28;20413;-78
2020/12/06 00:21:40;;;;;;;43.03;21.35;;;;;;;1.38;100.00;99612.38;4951702;28;20039;-77
2020/12/06 00:24:06;;;;;;;47.30;21.65;;;;;;;1.34;100.00;99618.72;4935591;28;20070;-77
2020/12/06 00:26:31;;;;;;;41.38;21.02;;;;;;;1.33;100.00;99611.72;4974129;28;20046;-77
2020/12/06 00:28:57;;;;;;;47.03;21.73;;;;;;;1.30;100.00;99607.41;4945981;28;20073;-77
2020/12/06 00:31:23;;;;;;;47.08;22.00;;;;;;;1.28;100.00;99600.50;4952352;28;20038;-77
2020/12/06 00:33:48;;;;;;;43.25;21.23;;;;;;;1.28;100.00;99588.16;4950930;28;20450;-77
2020/12/06 00:36:15;;;;;;;40.63;21.42;;;;;;;1.25;100.00;99587.41;4949506;28;20572;-77
2020/12/06 00:38:41;;;;;;;41.22;21.40;;;;;;;1.23;100.00;99584.84;4937437;28;20075;-76
2020/12/06 00:41:12;;;;;;;41.22;20.10;;;;;;;1.20;100.00;99572.63;4958834;28;20096;-75
2020/12/06 00:43:38;;;;;;;41.22;20.40;;;;;;;1.20;100.00;99577.03;4962228;28;20092;-76
2020/12/06 00:46:04;;;;;;;42.63;21.15;;;;;;;1.19;100.00;99580.59;4946263;28;20027;-77
2020/12/06 00:48:30;;;;;;;44.70;21.08;;;;;;;1.18;100.00;99570.97;4969734;28;20027;-77
2020/12/06 00:50:55;;;;;;;47.40;21.92;;;;;;;1.18;100.00;99582.38;4954939;28;20039;-77
2020/12/06 00:53:24;;;;;;;42.83;20.95;;;;;;;1.18;100.00;99569.19;4951209;28;20060;-77
2020/12/06 00:55:51;;;;;;;42.75;20.40;;;;;;;1.16;100.00;99567.53;4960362;28;20563;-76
2020/12/06 00:58:17;;;;;;;43.40;21.88;;;;;;;1.19;100.00;99576.19;4962695;28;20097;-77
2020/12/06 01:00:43;;;;;;;42.65;21.15;;;;;;;1.16;100.00;99586.03;4972181;28;20290;-77
2020/12/06 01:03:08;;;;;;;40.53;20.92;;;;;;;1.15;100.00;99590.47;4954962;28;20034;-77
2020/12/06 01:05:34;;;;;;;50.15;22.40;;;;;;;1.14;100.00;99585.25;4959372;28;20045;-78
2020/12/06 01:07:59;;;;;;;43.88;21.50;;;;;;;1.12;100.00;99574.72;4977539;28;20038;-76
2020/12/06 01:10:25;;;;;;;37.55;19.88;;;;;;;1.11;100.00;99586.22;4953331;28;20039;-77
2020/12/06 01:12:51;;;;;;;47.95;21.70;;;;;;;1.10;100.00;99589.81;4954578;28;20038;-78
2020/12/06 01:15:17;;;;;;;43.75;21.67;;;;;;;1.09;100.00;99589.88;4936733;28;20023;-75
2020/12/06 01:17:43;;;;;;;46.88;21.13;;;;;;;1.09;100.00;99595.16;4951875;28;20405;-76
2020/12/06 01:20:08;;;;;;;47.60;21.67;;;;;;;1.14;100.00;99590.53;4940848;28;20121;-77
2020/12/06 01:22:35;;;;;;;42.28;21.27;;;;;;;1.15;100.00;99586.97;4952500;28;20027;-76
2020/12/06 01:25:00;;;;;;;40.55;19.92;;;;;;;1.08;100.00;99599.59;4949913;28;20046;-77
2020/12/06 01:27:26;;;;;;;41.85;20.80;;;;;;;1.05;100.00;99610.28;4945586;28;20039;-76
2020/12/06 01:29:51;;;;;;;43.80;20.80;;;;;;;1.03;100.00;99601.56;4951171;28;20436;-76
2020/12/06 01:32:17;;;;;;;43.13;20.27;;;;;;;1.04;100.00;99603.28;4969564;28;20065;-75
2020/12/06 01:34:42;;;;;;;42.22;21.48;;;;;;;1.11;100.00;99599.44;4953683;28;20260;-75
2020/12/06 01:37:08;;;;;;;41.97;20.30;;;;;;;1.08;100.00;99593.44;4951997;28;20046;-75
2020/12/06 01:39:33;;;;;;;42.63;20.45;;;;;;;1.07;100.00;99582.00;4994932;28;20034;-76
2020/12/06 01:41:59;;;;;;;42.70;21.00;;;;;;;1.05;100.00;99585.66;4968968;28;20042;-77
2020/12/06 01:44:26;;;;;;;42.30;21.98;;;;;;;1.01;100.00;99582.28;4961729;28;20027;-77
2020/12/06 01:46:54;;;;;;;45.50;21.65;;;;;;;1.02;100.00;99601.63;4968557;28;20041;-77
2020/12/06 01:49:20;;;;;;;45.33;21.13;;;;;;;0.99;100.00;99588.56;4934639;28;20397;-77
2020/12/06 01:51:56;;;;;;;43.58;21.17;;;;;;;0.96;100.00;99573.69;4970993;28;20416;-77
2020/12/06 01:54:23;;;;;;;43.35;20.50;;;;;;;0.94;100.00;99590.53;4967663;28;20489;-77
2020/12/06 01:56:49;;;;;;;45.10;21.58;;;;;;;0.94;100.00;99596.66;4954304;28;20031;-77
2020/12/06 01:59:15;;;;;;;41.33;20.70;;;;;;;0.96;100.00;99607.19;4953265;28;20037;-76
2020/12/06 02:01:41;;;;;;;42.05;21.05;;;;;;;0.95;100.00;99624.81;4954490;28;20043;-77
2020/12/06 02:04:10;;;;;;;44.97;21.05;;;;;;;0.95;100.00;99623.94;4966696;28;20059;-77
2020/12/06 02:06:36;;;;;;;44.53;22.33;;;;;;;0.96;100.00;99623.03;4972692;28;20485;-77
2020/12/06 02:09:01;;;;;;;45.20;22.88;;;;;;;0.96;100.00;99625.66;4955500;28;20493;-77
2020/12/06 02:11:32;;;;;;;48.58;23.08;;;;;;;0.96;100.00;99617.75;4982829;28;20046;-75
2020/12/06 02:13:58;;;;;;;42.90;20.65;;;;;;;0.93;100.00;99600.22;4935610;28;20058;-77
2020/12/06 02:16:26;;;;;;;44.42;21.38;;;;;;;0.95;100.00;99608.09;4958767;28;20042;-78
2020/12/06 02:18:52;;;;;;;40.88;20.85;;;;;;;0.94;100.00;99624.88;4950747;28;20030;-77
2020/12/06 02:21:17;;;;;;;38.53;19.17;;;;;;;0.94;100.00;99627.50;4950833;28;20026;-77
2020/12/06 02:23:43;;;;;;;41.88;20.05;;;;;;;0.92;100.00;99629.38;4953852;28;20506;-77
2020/12/06 02:26:08;;;;;;;43.53;19.40;;;;;;;0.91;100.00;99622.38;4952579;28;20049;-77
2020/12/06 02:28:33;;;;;;;40.53;19.00;;;;;;;0.90;100.00;99618.00;4952343;28;20058;-77
2020/12/06 02:30:59;;;;;;;35.10;18.55;;;;;;;0.90;100.00;99607.44;4965117;28;20505;-76
2020/12/06 02:33:25;;;;;;;43.08;20.08;;;;;;;0.90;100.00;99615.38;4949872;28;20379;-77
2020/12/06 02:35:50;;;;;;;39.20;19.98;;;;;;;0.89;100.00;99600.44;4950169;28;20034;-76
2020/12/06 02:38:16;;;;;;;37.83;19.20;;;;;;;0.87;100.00;99584.66;4952907;28;20427;-76
2020/12/06 02:40:41;;;;;;;34.78;19.58;;;;;;;0.85;100.00;99567.16;4956747;28;20034;-77
2020/12/06 02:43:06;;;;;;;40.67;20.38;;;;;;;0.81;100.00;99567.28;4950095;28;20034;-76
2020/12/06 02:45:32;;;;;;;43.20;19.45;;;;;;;0.79;100.00;99577.06;4951473;28;20109;-78
2020/12/06 02:47:58;;;;;;;36.83;18.73;;;;;;;0.77;100.00;99563.06;4954800;28;20751;-77
2020/12/06 02:50:23;;;;;;;39.67;20.10;;;;;;;0.76;100.00;99561.34;4968415;28;20027;-76
2020/12/06 02:52:51;;;;;;;42.80;20.85;;;;;;;0.75;100.00;99582.53;4935216;28;20031;-75
2020/12/06 02:55:16;;;;;;;38.25;19.75;;;;;;;0.74;100.00;99581.66;4951456;28;20035;-77
2020/12/06 02:57:41;;;;;;;40.40;18.80;;;;;;;0.74;100.00;99588.75;4943542;28;20049;-76
2020/12/06 03:00:07;;;;;;;44.10;20.90;;;;;;;0.77;100.00;99605.31;4973020;28;20026;-76
2020/12/06 03:02:32;;;;;;;42.28;21.05;;;;;;;0.77;100.00;99594.75;4955449;28;20126;-77
2020/12/06 03:04:58;;;;;;;47.58;21.10;;;;;;;0.77;100.00;99615.88;4945043;28;20031;-76
2020/12/06 03:07:26;;;;;;;48.63;21.55;;;;;;;0.79;100.00;99607.91;4948647;28;20482;-76
2020/12/06 03:09:52;;;;;;;47.15;20.13;;;;;;;0.79;100.00;99611.41;4947927;28;20043;-76
2020/12/06 03:12:17;;;;;;;42.97;20.95;;;;;;;0.86;100.00;99613.78;4967917;28;20056;-77
2020/12/06 03:14:43;;;;;;;40.90;20.00;;;;;;;0.84;100.00;99612.97;4954026;28;20378;-76
2020/12/06 03:17:08;;;;;;;40.15;19.17;;;;;;;0.80;100.00;99622.84;4968488;28;20041;-77
2020/12/06 03:19:34;;;;;;;41.90;20.85;;;;;;;0.81;100.00;99609.53;4957205;28;20587;-76
2020/12/06 03:21:59;;;;;;;43.58;20.77;;;;;;;0.80;100.00;99607.81;4966239;28;20498;-77
2020/12/06 03:24:25;;;;;;;35.83;19.33;;;;;;;0.78;100.00;99614.97;4976725;28;20031;-76
2020/12/06 03:26:53;;;;;;;41.78;19.90;;;;;;;0.77;100.00;99605.31;4949597;28;20126;-77
2020/12/06 03:29:22;;;;;;;42.25;20.08;;;;;;;0.79;100.00;99607.91;4970252;28;20561;-77
2020/12/06 03:31:47;;;;;;;39.35;19.67;;;;;;;0.81;100.00;99613.97;4955061;28;20400;-76
2020/12/06 03:34:12;;;;;;;36.70;18.83;;;;;;;0.80;100.00;99615.75;4976552;28;20129;-77
2020/12/06 03:36:38;;;;;;;35.30;18.58;;;;;;;0.80;100.00;99615.75;4948912;28;20038;-76
2020/12/06 03:39:03;;;;;;;40.85;19.80;;;;;;;0.80;100.00;99607.81;4985337;28;20106;-77
2020/12/06 03:41:29;;;;;;;38.08;18.75;;;;;;;0.80;100.00;99618.38;4984749;28;20039;-76
2020/12/06 03:43:54;;;;;;;39.13;18.67;;;;;;;0.85;100.00;99614.72;4942659;28;20074;-75
2020/12/06 03:46:20;;;;;;;41.83;19.30;;;;;;;0.84;100.00;99615.63;4937737;28;20038;-76
2020/12/06 03:48:45;;;;;;;39.83;20.05;;;;;;;0.86;100.00;99608.50;4969940;28;20038;-76
2020/12/06 03:51:11;;;;;;;42.80;19.77;;;;;;;0.87;100.00;99610.19;4966080;28;20121;-77
2020/12/06 03:53:36;;;;;;;37.28;19.65;;;;;;;0.86;100.00;99604.09;4969234;28;20038;-76
2020/12/06 03:56:01;;;;;;;41.25;19.13;;;;;;;0.88;100.00;99607.50;4941449;28;20041;-77
2020/12/06 03:58:27;;;;;;;38.72;19.38;;;;;;;0.88;100.00;99601.34;4968673;28;20039;-77
2020/12/06 04:00:52;;;;;;;36.47;18.48;;;;;;;0.87;100.00;99591.72;4971094;28;20069;-75
2020/12/06 04:03:18;;;;;;;41.50;20.13;;;;;;;0.85;100.00;99585.66;4947760;28;20039;-76
2020/12/06 04:05:46;;;;;;;43.53;20.75;;;;;;;0.82;100.00;99576.94;4966724;28;20426;-77
2020/12/06 04:08:12;;;;;;;45.60;19.60;;;;;;;0.83;100.00;99577.78;4951024;28;20141;-76
2020/12/06 04:10:37;;;;;;;40.38;19.60;;;;;;;0.84;100.00;99568.09;4937122;28;20533;-76
2020/12/06 04:13:03;;;;;;;38.60;18.65;;;;;;;0.84;100.00;99563.66;4964900;28;20046;-75
2020/12/06 04:15:28;;;;;;;39.17;18.77;;;;;;;0.85;100.00;99560.09;4979234;28;20122;-77
2020/12/06 04:17:54;;;;;;;38.10;19.65;;;;;;;0.86;100.00;99576.81;4959129;28;20026;-77
2020/12/06 04:20:19;;;;;;;40.55;20.08;;;;;;;0.87;100.00;99578.50;4970349;28;20447;-76
2020/12/06 04:22:44;;;;;;;42.50;19.73;;;;;;;0.88;100.00;99574.94;4964255;28;20192;-76
2020/12/06 04:25:10;;;;;;;40.50;20.67;;;;;;;0.89;100.00;99572.25;4950096;28;20066;-76
2020/12/06 04:27:36;;;;;;;39.35;20.63;;;;;;;0.88;100.00;99564.38;4939286;28;20076;-76
2020/12/06 04:30:04;;;;;;;43.38;19.67;;;;;;;0.87;100.00;99552.94;4958893;28;20050;-76
2020/12/06 04:32:30;;;;;;;42.20;20.00;;;;;;;0.85;100.00;99549.53;4953912;28;20069;-77
2020/12/06 04:34:55;;;;;;;40.30;19.52;;;;;;;0.85;100.00;99559.25;4975753;28;20089;-76
2020/12/06 04:37:21;;;;;;;37.35;18.55;;;;;;;0.84;100.00;99560.16;4953232;28;20042;-76
2020/12/06 04:39:46;;;;;;;37.42;18.55;;;;;;;0.84;100.00;99573.38;4952892;28;20448;-76
2020/12/06 04:42:12;;;;;;;41.17;18.98;;;;;;;0.85;100.00;99572.44;4953642;28;20505;-77
2020/12/06 04:44:38;;;;;;;37.08;18.85;;;;;;;0.83;100.00;99569.88;4936882;28;20093;-76
2020/12/06 04:47:08;;;;;;;36.40;17.95;;;;;;;0.82;100.00;99576.06;4952411;28;20035;-75
2020/12/06 04:49:43;;;;;;;38.55;18.42;;;;;;;0.87;100.00;99575.84;4951547;28;20026;-77
2020/12/06 04:52:14;;;;;;;35.53;18.52;;;;;;;0.84;100.00;99570.72;4983844;28;20126;-78
2020/12/06 04:54:41;;;;;;;33.17;17.88;;;;;;;0.83;100.00;99577.78;4973579;28;20038;-76
2020/12/06 04:57:09;;;;;;;37.78;19.00;;;;;;;0.81;100.00;99569.06;4955611;28;20039;-77
2020/12/06 04:59:40;;;;;;;36.83;18.55;;;;;;;0.81;100.00;99567.28;4967309;28;20114;-76
2020/12/06 05:02:09;;;;;;;35.25;17.52;;;;;;;0.80;100.00;99556.81;4969925;28;20030;-75
2020/12/06 05:04:40;;;;;;;36.25;17.75;;;;;;;0.79;100.00;99555.09;4953963;28;20800;-76
2020/12/06 05:07:06;;;;;;;32.72;17.05;;;;;;;0.78;100.00;99554.22;4969040;28;20716;-76
2020/12/06 05:09:35;;;;;;;34.78;18.55;;;;;;;0.82;100.00;99542.59;4984304;28;20123;-76
2020/12/06 05:12:01;;;;;;;35.45;17.95;;;;;;;0.77;100.00;99541.09;4967692;28;20041;-77
2020/12/06 05:14:26;;;;;;;33.50;17.35;;;;;;;0.75;100.00;99540.28;4953342;28;20134;-76
2020/12/06 05:16:55;;;;;;;34.03;17.05;;;;;;;0.74;100.00;99547.34;4973860;28;20041;-75
2020/12/06 05:19:24;;;;;;;31.13;17.00;;;;;;;0.72;100.00;99549.22;4954135;28;20055;-77
2020/12/06 05:21:49;;;;;;;36.55;18.75;;;;;;;0.86;100.00;99553.03;4966543;28;20030;-76
2020/12/06 05:24:15;;;;;;;35.97;17.60;;;;;;;0.77;100.00;99552.50;4946117;28;20026;-76
2020/12/06 05:26:40;;;;;;;34.20;17.52;;;;;;;0.71;100.00;99552.78;4951442;28;20520;-78
2020/12/06 05:29:05;;;;;;;38.15;18.92;;;;;;;0.70;100.00;99563.38;4951752;28;20046;-75
2020/12/06 05:31:31;;;;;;;36.15;18.17;;;;;;;0.69;100.00;99575.72;4956890;28;20039;-77
2020/12/06 05:33:57;;;;;;;35.70;17.58;;;;;;;0.70;100.00;99569.53;4970374;28;20035;-75
2020/12/06 05:36:22;;;;;;;32.80;17.77;;;;;;;0.72;100.00;99569.47;4953724;28;20766;-78
2020/12/06 05:38:49;;;;;;;41.40;18.20;;;;;;;0.72;100.00;99565.06;4938365;28;20038;-77
2020/12/06 05:41:14;;;;;;;35.50;18.45;;;;;;;0.73;100.00;99561.50;4963455;28;20027;-77
2020/12/06 05:43:40;;;;;;;37.45;18.42;;;;;;;0.82;100.00;99555.81;4955205;28;20097;-76
2020/12/06 05:46:06;;;;;;;36.92;19.00;;;;;;;0.82;100.00;99550.50;4936869;28;20054;-76
2020/12/06 05:48:33;;;;;;;39.90;19.42;;;;;;;0.88;100.00;99556.44;4976260;28;20500;-77
2020/12/06 05:51:00;;;;;;;35.55;18.85;;;;;;;0.84;100.00;99546.94;4951398;28;20090;-77
2020/12/06 05:53:27;;;;;;;39.55;19.92;;;;;;;0.87;100.00;99557.38;4951882;28;20041;-77
2020/12/06 05:55:56;;;;;;;39.25;18.10;;;;;;;0.86;100.00;99547.75;4937547;28;20038;-78
2020/12/06 05:58:22;;;;;;;39.90;18.05;;;;;;;0.85;100.00;99553.97;4936445;28;20369;-77
2020/12/06 06:00:49;;;;;;;38.22;18.30;;;;;;;0.85;100.00;99560.09;4983179;28;20122;-77
2020/12/06 06:03:26;;;;;;;38.28;18.92;;;;;;;0.93;100.00;99563.25;4968954;28;20101;-76
2020/12/06 06:05:54;;;;;;;35.95;18.23;;;;;;;0.95;100.00;99561.41;4961907;28;20501;-77
2020/12/06 06:08:22;;;;;;;38.08;18.52;;;;;;;0.92;100.00;99560.69;4966825;28;20609;-75
2020/12/06 06:11:14;;;;;;;35.83;18.33;;;;;;;0.88;100.00;99559.09;4937521;28;20093;-76
2020/12/06 06:13:55;;;;;;;34.43;17.37;;;;;;;0.89;100.00;99568.75;4934593;28;20053;-78
2020/12/06 06:16:23;;;;;;;39.92;18.50;;;;;;;0.87;100.00;99566.16;4941817;28;20053;-76
2020/12/06 06:18:50;;;;;;;37.33;18.83;;;;;;;0.89;100.00;99560.81;4936193;28;20035;-77
2020/12/06 06:21:27;;;;;;;36.78;18.50;;;;;;;0.91;100.00;99553.69;4950935;28;20042;-77
2020/12/06 06:23:54;;;;;;;33.75;17.75;;;;;;;0.91;100.00;99558.97;4953065;28;20493;-75
2020/12/06 06:26:23;;;;;;;37.67;18.27;;;;;;;0.90;100.00;99554.63;4993257;28;20035;-76
2020/12/06 06:28:52;;;;;;;33.45;17.75;;;;;;;0.91;100.00;99559.84;4949369;28;20137;-75
2020/12/06 06:31:19;;;;;;;37.78;19.52;;;;;;;0.89;100.00;99559.03;4949975;28;20066;-77
2020/12/06 06:33:46;;;;;;;32.08;17.08;;;;;;;0.97;100.00;99558.72;4952679;28;20042;-77
2020/12/06 06:36:11;;;;;;;36.47;18.02;;;;;;;0.92;100.00;99560.69;4962645;28;20035;-77
2020/12/06 06:38:42;;;;;;;40.33;18.65;;;;;;;0.92;100.00;99550.13;4950227;28;20046;-77
2020/12/06 06:41:08;;;;;;;42.78;19.85;;;;;;;0.92;100.00;99553.63;4966052;28;20141;-76
2020/12/06 06:43:35;;;;;;;41.03;20.25;;;;;;;0.92;100.00;99547.50;4966723;28;20041;-76
2020/12/06 06:46:15;;;;;;;40.10;19.40;;;;;;;0.95;100.00;99555.25;4954278;28;20030;-77
2020/12/06 06:48:45;;;;;;;43.53;20.67;;;;;;;0.98;100.00;99544.56;4951251;28;20097;-77
2020/12/06 06:51:17;;;;;;;40.70;18.08;;;;;;;1.01;100.00;99544.44;4968818;28;20402;-77
2020/12/06 06:53:47;;;;;;;44.65;21.38;;;;;;;1.05;100.00;99554.78;4947476;28;20097;-76
2020/12/06 06:56:18;;;;;;;40.88;19.27;;;;;;;1.07;100.00;99538.88;4951048;28;20489;-77
2020/12/06 06:58:46;;;;;;;40.97;19.60;;;;;;;1.08;100.00;99530.88;4959064;28;20097;-77
2020/12/06 07:01:16;;;;;;;38.47;19.45;;;;;;;1.11;100.00;99529.91;4932489;28;20035;-77
2020/12/06 07:03:43;;;;;;;38.60;19.08;;;;;;;1.16;100.00;99533.19;4945994;28;20394;-77
2020/12/06 07:06:48;;;;;;;39.08;19.00;;;;;;;1.23;100.00;99513.50;4943692;28;20039;-78
2020/12/06 07:09:22;;;;;;;50.92;20.63;;;;;;;1.23;100.00;99517.91;4965917;28;20133;-78
2020/12/06 07:11:49;;;;;;;42.65;21.50;;;;;;;1.32;100.00;99520.97;4981396;28;20035;-77
2020/12/06 07:14:14;;;;;;;70.35;31.88;;;;;;;1.30;100.00;99525.47;4951377;28;20037;-76
2020/12/06 07:16:40;;;;;;;63.97;29.88;;;;;;;1.29;100.00;99531.72;4937864;28;20026;-76
2020/12/06 07:19:05;;;;;;;48.97;22.00;;;;;;;1.47;100.00;99541.44;4966581;28;20121;-77
2020/12/06 07:21:36;;;;;;;43.60;20.90;;;;;;;1.40;100.00;99541.78;4948665;28;20101;-77
2020/12/06 07:24:05;;;;;;;50.40;21.92;;;;;;;1.37;100.00;99524.28;4949208;28;20176;-76
2020/12/06 07:26:32;;;;;;;44.45;22.17;;;;;;;1.37;100.00;99529.56;4951600;28;20072;-78
2020/12/06 07:29:01;;;;;;;44.55;21.38;;;;;;;1.39;100.00;99514.50;4950093;28;20169;-77
2020/12/06 07:31:27;;;;;;;42.33;20.55;;;;;;;1.39;100.00;99492.47;4951672;28;20078;-78
2020/12/06 07:33:54;;;;;;;45.05;21.20;;;;;;;1.39;100.00;99492.47;4950917;28;20035;-77
2020/12/06 07:36:19;;;;;;;42.75;22.02;;;;;;;1.39;100.00;99488.06;4968259;28;20504;-77
2020/12/06 07:38:45;;;;;;;47.15;21.17;;;;;;;1.42;100.00;99487.06;4967698;28;20133;-76
2020/12/06 07:41:11;;;;;;;45.22;22.20;;;;;;;1.43;100.00;99500.19;4981862;28;20071;-76
2020/12/06 07:43:36;;;;;;;44.88;21.88;;;;;;;1.43;100.00;99510.78;4942519;28;20047;-76
2020/12/06 07:46:16;;;;;;;47.22;21.20;;;;;;;1.49;100.00;99515.78;4952722;28;20509;-77
2020/12/06 07:48:42;;;;;;;47.47;23.48;;;;;;;1.50;100.00;99519.28;4965836;28;20130;-76
2020/12/06 07:51:08;;;;;;;54.58;25.35;;;;;;;1.50;100.00;99520.13;4949010;28;20098;-77
2020/12/06 07:53:43;;;;;;;43.13;21.52;;;;;;;1.59;100.00;99532.94;4949568;28;20372;-77
2020/12/06 07:56:10;;;;;;;43.85;21.27;;;;;;;1.61;100.00;99536.34;4968561;28;20113;-77
2020/12/06 07:58:43;;;;;;;49.03;21.77;;;;;;;1.60;100.00;99545.22;4949777;28;20410;-78
2020/12/06 08:01:09;;;;;;;44.72;20.10;;;;;;;1.59;100.00;99550.59;4948914;28;20039;-77
2020/12/06 08:03:35;;;;;;;39.92;20.15;;;;;;;1.58;100.00;99556.81;4958450;28;20042;-78
2020/12/06 08:06:04;;;;;;;46.40;21.75;;;;;;;1.59;100.00;99559.38;4967946;28;20139;-77
2020/12/06 08:08:34;;;;;;;42.67;21.27;;;;;;;1.60;100.00;99566.38;4989318;28;20213;-79
2020/12/06 08:11:01;;;;;;;46.40;22.50;;;;;;;1.62;100.00;99572.44;4968446;28;20070;-77
2020/12/06 08:13:27;;;;;;;48.22;22.58;;;;;;;1.65;100.00;99578.53;4953749;28;20101;-77
2020/12/06 08:15:53;;;;;;;49.45;23.10;;;;;;;1.66;100.00;99585.56;4951663;28;20046;-75
2020/12/06 08:18:18;;;;;;;45.60;21.40;;;;;;;1.68;100.00;99583.66;4966580;28;20215;-77
2020/12/06 08:20:54;;;;;;;44.78;21.75;;;;;;;1.73;100.00;99587.81;4957559;28;20402;-77
2020/12/06 08:23:49;;;;;;;41.80;20.17;;;;;;;1.73;100.00;99587.00;4983271;28;20062;-77
2020/12/06 08:26:14;;;;;;;43.05;20.58;;;;;;;1.74;100.00;99591.31;4946513;28;20440;-77
2020/12/06 08:28:40;;;;;;;40.92;20.42;;;;;;;1.80;100.00;99604.25;4951271;28;20047;-78
2020/12/06 08:31:23;;;;;;;43.00;20.92;;;;;;;1.77;100.00;99596.50;4942066;28;20030;-76
2020/12/06 08:33:48;;;;;;;40.47;20.05;;;;;;;1.82;100.00;99595.34;4964506;28;20080;-78
2020/12/06 08:36:23;;;;;;;39.33;20.05;;;;;;;2.04;100.00;99597.81;4954917;28;20126;-77
2020/12/06 08:38:49;;;;;;;42.08;20.13;;;;;;;2.02;100.00;99584.69;4948839;28;20050;-77
2020/12/06 08:41:15;;;;;;;47.72;24.35;;;;;;;1.96;100.00;99581.47;4965779;28;20039;-77
2020/12/06 08:43:41;;;;;;;48.45;25.10;;;;;;;1.95;100.00;99571.81;4939025;28;20047;-76
2020/12/06 08:46:08;;;;;;;48.72;25.02;;;;;;;1.93;100.00;99565.72;4991423;28;20081;-78
2020/12/06 08:48:33;;;;;;;51.22;26.50;;;;;;;1.96;100.00;99558.50;4958948;28;20408;-78
2020/12/06 08:51:02;;;;;;;55.47;26.40;;;;;;;2.03;100.00;99562.59;4954124;28;20042;-77
2020/12/06 08:53:41;;;;;;;64.00;26.88;;;;;;;2.18;100.00;99544.22;4952156;28;20482;-77
2020/12/06 08:56:25;;;;;;;62.70;28.33;;;;;;;2.27;100.00;99542.00;4973183;28;20038;-76
2020/12/06 08:58:51;;;;;;;67.43;31.33;;;;;;;2.20;100.00;99553.81;4958543;28;20120;-77
2020/12/06 09:01:16;;;;;;;67.05;29.95;;;;;;;2.22;100.00;99553.75;4941828;28;20121;-77
2020/12/06 09:03:42;;;;;;;53.83;26.40;;;;;;;2.28;100.00;99562.25;4945259;28;20169;-77
2020/12/06 09:06:17;;;;;;;59.25;26.80;;;;;;;2.32;100.00;99565.59;4965139;28;20117;-77
2020/12/06 09:08:43;;;;;;;60.85;27.08;;;;;;;2.31;100.00;99564.75;4957601;28;20134;-75
2020/12/06 09:11:14;;;;;;;53.13;26.00;;;;;;;2.40;100.00;99582.84;4952177;28;20042;-76
2020/12/06 09:13:39;;;;;;;59.05;27.35;;;;;;;2.46;100.00;99583.47;4965769;28;20043;-77
2020/12/06 09:16:05;;;;;;;60.53;26.08;;;;;;;2.53;100.00;99584.88;4935739;28;20041;-76
2020/12/06 09:18:30;;;;;;;55.60;25.58;;;;;;;2.64;100.00;99572.81;4968976;28;20074;-77
2020/12/06 09:20:56;;;;;;;60.30;27.20;;;;;;;2.67;100.00;99585.03;4939922;28;20031;-76
2020/12/06 09:23:21;;;;;;;57.42;27.15;;;;;;;2.83;100.00;99578.03;4962851;28;20035;-77
2020/12/06 09:25:46;;;;;;;49.35;25.02;;;;;;;2.89;100.00;99577.72;4936021;28;20042;-76
2020/12/06 09:28:12;;;;;;;53.40;25.80;;;;;;;3.00;100.00;99574.50;4960291;28;20030;-76
2020/12/06 09:30:37;;;;;;;54.00;24.25;;;;;;;3.02;100.00;99562.91;4959077;28;20042;-76
2020/12/06 09:33:03;;;;;;;53.25;26.50;;;;;;;3.03;100.00;99564.59;4935887;28;20049;-75
2020/12/06 09:35:28;;;;;;;53.28;25.58;;;;;;;3.04;100.00;99557.50;4948465;28;20027;-75
2020/12/06 09:37:54;;;;;;;53.03;25.08;;;;;;;3.19;100.00;99549.63;4955649;28;20390;-77
2020/12/06 09:40:19;;;;;;;56.35;28.13;;;;;;;3.25;100.00;99551.09;4970699;28;20031;-76
2020/12/06 09:42:45;;;;;;;49.60;26.40;;;;;;;3.23;100.00;99553.81;4941294;28;20574;-76
2020/12/06 09:45:10;;;;;;;49.17;24.05;;;;;;;3.32;100.00;99543.66;4956727;28;20038;-77
2020/12/06 09:47:37;;;;;;;48.47;24.98;;;;;;;3.33;100.00;99535.63;4940320;28;20544;-77
2020/12/06 09:50:03;;;;;;;48.53;23.80;;;;;;;3.35;100.00;99530.22;4959181;28;20035;-76
2020/12/06 09:52:28;;;;;;;52.47;25.67;;;;;;;3.32;100.00;99525.97;4953825;28;20057;-77
2020/12/06 09:54:54;;;;;;;52.47;25.45;;;;;;;3.38;100.00;99528.28;4936132;28;21477;-77
2020/12/06 09:57:19;;;;;;;51.53;25.10;;;;;;;3.44;100.00;99527.09;4954187;28;20344;-76
2020/12/06 09:59:45;;;;;;;49.38;24.17;;;;;;;3.50;100.00;99521.47;4953020;28;20067;-77
2020/12/06 10:02:10;;;;;;;49.50;23.58;;;;;;;3.45;100.00;99531.47;4951096;28;20326;-77
2020/12/06 10:04:36;;;;;;;49.15;24.05;;;;;;;3.46;100.00;99536.66;4967708;28;20129;-76
2020/12/06 10:07:01;;;;;;;59.70;25.80;;;;;;;3.43;100.00;99533.34;4966848;28;20320;-77
2020/12/06 10:09:27;;;;;;;52.42;25.42;;;;;;;3.51;100.00;99539.09;4950512;28;20516;-77
2020/12/06 10:11:52;;;;;;;57.65;27.98;;;;;;;3.51;100.00;99541.75;4945395;28;20410;-77
2020/12/06 10:14:18;;;;;;;54.88;25.35;;;;;;;3.54;100.00;99546.88;4949989;28;20034;-76
2020/12/06 10:16:43;;;;;;;54.13;26.02;;;;;;;3.57;100.00;99554.69;4950939;28;20445;-76
2020/12/06 10:19:08;;;;;;;55.85;27.17;;;;;;;3.67;100.00;99542.63;4949823;28;20050;-77
2020/12/06 10:21:34;;;;;;;58.83;27.88;;;;;;;3.68;100.00;99546.97;4953734;28;20045;-77
2020/12/06 10:23:59;;;;;;;55.03;26.25;;;;;;;3.79;100.00;99543.72;4952229;28;20035;-76
2020/12/06 10:26:25;;;;;;;53.60;26.15;;;;;;;3.87;100.00;99530.91;4975220;28;20133;-77
2020/12/06 10:28:54;;;;;;;56.63;26.80;;;;;;;3.87;100.00;99536.22;4961027;28;20470;-77
2020/12/06 10:31:19;;;;;;;63.80;28.70;;;;;;;3.89;100.00;99537.81;4957125;28;20035;-76
2020/12/06 10:33:48;;;;;;;56.40;27.23;;;;;;;3.87;100.00;99539.72;4939842;28;20030;-76
2020/12/06 10:36:13;;;;;;;65.90;29.88;;;;;;;3.87;100.00;99537.06;4956229;28;20050;-77
2020/12/06 10:38:39;;;;;;;56.08;27.80;;;;;;;3.91;100.00;99527.97;4941245;28;20035;-77
2020/12/06 10:41:04;;;;;;;63.42;29.90;;;;;;;3.95;100.00;99516.22;4952997;28;20030;-76
2020/12/06 10:43:30;;;;;;;58.75;28.55;;;;;;;3.95;100.00;99508.28;4987694;28;20066;-77
2020/12/06 10:45:56;;;;;;;60.92;28.70;;;;;;;4.02;100.00;99514.94;4983042;28;20042;-77
2020/12/06 10:48:21;;;;;;;63.50;28.83;;;;;;;4.05;100.00;99514.78;4954213;28;20541;-76
2020/12/06 10:50:54;;;;;;;61.63;27.70;;;;;;;4.06;100.00;99515.66;4951791;28;20498;-77
2020/12/06 10:53:19;;;;;;;57.67;26.23;;;;;;;4.08;100.00;99514.59;4937173;28;20058;-76
2020/12/06 10:55:48;;;;;;;55.75;26.70;;;;;;;4.19;100.00;99529.94;4981520;28;20377;-77
2020/12/06 10:58:13;;;;;;;57.55;27.83;;;;;;;4.16;100.00;99529.25;4959641;28;20035;-77
2020/12/06 11:00:38;;;;;;;58.03;28.05;;;;;;;4.22;100.00;99526.25;4953969;28;20034;-76
2020/12/06 11:03:04;;;;;;;58.53;28.08;;;;;;;4.26;100.00;99528.63;4965213;28;20489;-76
2020/12/06 11:05:29;;;;;;;61.65;29.85;;;;;;;4.28;100.00;99536.50;4947319;28;20041;-77
2020/12/06 11:07:55;;;;;;;64.57;30.73;;;;;;;4.38;100.00;99535.88;4950200;28;20047;-77
2020/12/06 11:10:20;;;;;;;61.20;27.88;;;;;;;4.38;100.00;99527.91;4957196;28;20431;-77
2020/12/06 11:12:46;;;;;;;60.35;28.40;;;;;;;4.41;100.00;99537.53;4951016;28;20049;-77
2020/12/06 11:15:11;;;;;;;60.17;28.65;;;;;;;4.35;100.00;99537.88;4960289;28;20030;-77
2020/12/06 11:17:37;;;;;;;57.92;27.40;;;;;;;4.37;100.00;99525.38;4950948;28;20255;-76